Time;durP1;ratioP1;P1;durP2;ratioP2;P2;SDS_P1;SDS_P2;PMS_P1;PMS_P2;Temp;Humidity;BMP_temperature;BMP_pressure;BME280_temperature;BME280_humidity;BME280_pressure;Samples;Min_cycle;Max_cycle;Signal;HPM_P1;HPM_P2
2022/08/26 00:02:11;;;;;;;2.08;1.20;;;21.10;99.90;;;;;;5012838;28;20053;-85
2022/08/26 00:04:39;;;;;;;1.35;1.05;;;21.10;99.90;;;;;;5046027;28;20073;-85
2022/08/26 00:07:06;;;;;;;2.40;1.10;;;21.10;99.90;;;;;;5045385;28;20046;-85
2022/08/26 00:09:33;;;;;;;1.75;1.13;;;21.00;99.90;;;;;;5013040;28;20449;-85
2022/08/26 00:12:00;;;;;;;2.10;1.10;;;21.00;99.90;;;;;;5031557;28;20050;-85
2022/08/26 00:14:27;;;;;;;2.97;1.48;;;20.90;99.90;;;;;;5017145;28;20384;-85
2022/08/26 00:16:53;;;;;;;1.88;1.10;;;20.80;99.90;;;;;;5016668;28;20047;-85
2022/08/26 00:19:20;;;;;;;2.25;1.27;;;20.80;99.90;;;;;;5032864;28;20045;-80
2022/08/26 00:21:48;;;;;;;1.75;1.10;;;20.80;99.90;;;;;;5032933;28;20049;-85
2022/08/26 00:24:16;;;;;;;1.83;1.00;;;20.70;99.90;;;;;;5029340;28;20053;-80
2022/08/26 00:26:43;;;;;;;1.88;1.15;;;20.70;99.90;;;;;;5029665;28;20057;-80
2022/08/26 00:29:11;;;;;;;2.80;1.23;;;20.60;99.90;;;;;;4980794;28;20403;-85
2022/08/26 00:31:37;;;;;;;2.47;1.50;;;20.60;99.90;;;;;;5013386;28;20097;-80
2022/08/26 00:34:04;;;;;;;2.22;1.20;;;20.60;99.90;;;;;;5011846;28;20491;-80
2022/08/26 00:36:31;;;;;;;2.05;1.27;;;20.50;99.90;;;;;;5000575;28;20045;-80
2022/08/26 00:38:58;;;;;;;1.90;1.15;;;20.50;99.90;;;;;;5000271;28;20049;-85
2022/08/26 00:41:25;;;;;;;3.53;1.20;;;20.40;99.90;;;;;;5028980;28;20125;-80
2022/08/26 00:43:52;;;;;;;1.92;1.20;;;20.40;99.90;;;;;;4996970;28;20047;-85
2022/08/26 00:46:30;;;;;;;2.17;1.33;;;20.40;99.90;;;;;;4980697;28;20049;-80
2022/08/26 00:49:29;;;;;;;2.78;1.55;;;20.40;99.90;;;;;;5028911;28;20125;-80
2022/08/26 00:52:01;;;;;;;9.65;1.70;;;20.40;99.90;;;;;;5045104;28;20048;-80
2022/08/26 00:54:34;;;;;;;2.17;1.52;;;20.30;99.90;;;;;;5032360;28;20038;-80
2022/08/26 00:57:05;;;;;;;1.92;1.25;;;20.30;99.90;;;;;;5032118;28;20514;-85
2022/08/26 00:59:32;;;;;;;2.05;1.30;;;20.30;99.90;;;;;;5029083;28;20435;-80
2022/08/26 01:02:00;;;;;;;2.65;1.60;;;20.30;99.90;;;;;;4996128;28;20054;-80
2022/08/26 01:04:28;;;;;;;1.60;1.02;;;20.20;99.90;;;;;;4996600;28;20156;-80
2022/08/26 01:06:56;;;;;;;2.08;1.40;;;20.20;99.90;;;;;;5012515;28;20475;-80
2022/08/26 01:09:23;;;;;;;2.40;1.67;;;20.20;99.90;;;;;;4996579;28;20082;-84
2022/08/26 01:11:53;;;;;;;3.20;1.42;;;20.20;99.90;;;;;;4996376;28;20078;-85
2022/08/26 01:14:21;;;;;;;2.88;1.67;;;20.30;99.90;;;;;;5012098;28;20384;-85
2022/08/26 01:16:48;;;;;;;2.05;1.30;;;20.30;99.90;;;;;;4990300;28;20038;-84
2022/08/26 01:19:42;;;;;;;2.88;1.95;;;20.30;99.90;;;;;;5012262;28;20038;-85
2022/08/26 01:22:33;;;;;;;3.15;1.63;;;20.30;99.90;;;;;;5011907;28;20048;-80
2022/08/26 01:25:00;;;;;;;3.13;1.77;;;20.40;99.90;;;;;;4995629;28;20058;-83
2022/08/26 01:27:30;;;;;;;2.60;1.23;;;20.40;99.90;;;;;;5028679;28;20050;-80
2022/08/26 01:29:59;;;;;;;3.25;1.83;;;20.30;99.90;;;;;;4996589;28;20049;-80
2022/08/26 01:32:27;;;;;;;2.83;1.85;;;20.30;99.90;;;;;;4997522;28;20471;-85
2022/08/26 01:34:53;;;;;;;2.30;1.55;;;20.30;99.90;;;;;;5015809;28;20045;-85
2022/08/26 01:37:28;;;;;;;1.95;1.35;;;20.30;99.90;;;;;;5031198;28;20041;-84
2022/08/26 01:39:55;;;;;;;2.00;1.40;;;20.30;99.90;;;;;;5015538;28;20046;-86
2022/08/26 01:42:24;;;;;;;1.98;1.38;;;20.30;99.90;;;;;;5027945;28;20459;-85
2022/08/26 01:45:03;;;;;;;2.05;1.33;;;20.30;99.90;;;;;;5003775;28;20034;-80
2022/08/26 01:47:32;;;;;;;1.92;1.23;;;20.30;99.90;;;;;;5031302;28;20045;-85
2022/08/26 01:50:01;;;;;;;2.03;1.38;;;20.30;99.90;;;;;;5014974;28;20044;-80
2022/08/26 01:52:32;;;;;;;2.47;1.33;;;20.30;99.90;;;;;;5031014;28;20044;-85
2022/08/26 01:54:59;;;;;;;1.60;1.20;;;20.40;99.90;;;;;;5047949;28;20060;-84
2022/08/26 01:57:27;;;;;;;2.45;1.42;;;20.30;99.90;;;;;;5014809;28;20092;-85
2022/08/26 01:59:57;;;;;;;2.22;1.58;;;20.40;99.90;;;;;;4999134;28;20419;-85
2022/08/26 02:02:24;;;;;;;2.85;1.70;;;20.40;99.90;;;;;;5030474;28;20111;-80
2022/08/26 02:05:01;;;;;;;1.88;1.10;;;20.40;99.90;;;;;;5014908;28;20088;-80
2022/08/26 02:07:29;;;;;;;2.10;1.35;;;20.40;99.90;;;;;;5031046;28;20077;-85
2022/08/26 02:09:55;;;;;;;1.85;1.15;;;20.40;99.90;;;;;;5030994;28;20049;-80
2022/08/26 02:12:24;;;;;;;1.83;1.20;;;20.40;99.90;;;;;;5030864;28;20041;-80
2022/08/26 02:14:56;;;;;;;2.22;1.42;;;20.40;99.90;;;;;;5031266;28;20041;-85
2022/08/26 02:17:31;;;;;;;1.55;1.10;;;20.40;99.90;;;;;;5046902;28;20481;-85
2022/08/26 02:19:58;;;;;;;2.45;1.15;;;20.40;99.90;;;;;;5030830;28;20483;-80
2022/08/26 02:22:25;;;;;;;2.60;1.50;;;20.40;99.90;;;;;;5014504;28;20053;-80
2022/08/26 02:24:59;;;;;;;2.38;1.30;;;20.40;99.90;;;;;;5030745;28;20067;-80
2022/08/26 02:27:32;;;;;;;2.83;1.60;;;20.50;99.90;;;;;;5030398;28;20042;-80
2022/08/26 02:30:17;;;;;;;1.75;1.13;;;20.50;99.90;;;;;;5030580;28;20080;-85
2022/08/26 02:32:45;;;;;;;;;;;20.40;99.90;;;;;;5030932;28;20058;-80
2022/08/26 02:35:13;;;;;;;3.60;1.42;;;20.50;99.90;;;;;;5029823;28;19921;-85
2022/08/26 02:37:41;;;;;;;1.83;1.25;;;20.50;99.90;;;;;;5046912;28;20656;-80
2022/08/26 02:40:11;;;;;;;2.28;1.52;;;20.50;99.90;;;;;;4998396;28;20076;-85
2022/08/26 02:42:37;;;;;;;1.83;1.17;;;20.50;99.90;;;;;;5030355;28;20414;-80
2022/08/26 02:45:05;;;;;;;2.08;1.27;;;20.50;99.90;;;;;;5030727;28;20046;-80
2022/08/26 02:47:32;;;;;;;1.42;0.88;;;20.50;99.90;;;;;;5013826;28;20100;-80
2022/08/26 02:49:59;;;;;;;2.30;1.23;;;20.50;99.90;;;;;;5014569;28;20042;-84
2022/08/26 02:52:26;;;;;;;1.45;1.20;;;20.50;99.90;;;;;;5013943;28;20513;-80
2022/08/26 02:54:52;;;;;;;2.20;1.42;;;20.60;99.90;;;;;;5030215;28;20879;-84
2022/08/26 02:57:20;;;;;;;2.47;1.33;;;20.60;99.90;;;;;;4997992;28;20045;-84
2022/08/26 02:59:46;;;;;;;2.28;1.33;;;20.60;99.90;;;;;;5046360;28;20549;-80
2022/08/26 03:02:13;;;;;;;2.20;1.30;;;20.60;99.90;;;;;;5013563;28;20097;-82
2022/08/26 03:04:40;;;;;;;3.03;1.45;;;20.60;99.90;;;;;;4994340;28;20093;-80
2022/08/26 03:07:07;;;;;;;2.20;1.30;;;20.60;99.90;;;;;;5010398;28;20084;-85
2022/08/26 03:09:33;;;;;;;1.70;1.23;;;20.60;99.90;;;;;;4978479;28;20453;-85
2022/08/26 03:12:00;;;;;;;2.00;1.25;;;20.60;99.90;;;;;;4993973;28;20479;-80
2022/08/26 03:14:28;;;;;;;1.85;1.35;;;20.60;99.90;;;;;;5030843;28;20036;-84
2022/08/26 03:16:55;;;;;;;2.35;1.67;;;20.50;99.90;;;;;;5046547;28;20049;-80
2022/08/26 03:19:24;;;;;;;1.70;1.05;;;20.50;99.90;;;;;;4997197;28;20038;-85
2022/08/26 03:21:51;;;;;;;1.63;1.10;;;20.50;99.90;;;;;;5027955;28;20053;-84
2022/08/26 03:24:19;;;;;;;2.42;1.65;;;20.50;99.90;;;;;;4993618;28;20038;-80
2022/08/26 03:26:46;;;;;;;2.17;1.50;;;20.50;99.90;;;;;;4994393;28;20496;-85
2022/08/26 03:31:58;;;;;;;1.88;1.25;;;20.60;99.90;;;;;;5012490;28;20054;-84
2022/08/26 03:34:24;;;;;;;2.05;1.30;;;20.60;99.90;;;;;;4977948;28;20108;-80
2022/08/26 03:36:51;;;;;;;1.48;0.95;;;20.70;99.90;;;;;;4978103;28;20086;-80
2022/08/26 03:39:18;;;;;;;2.22;1.38;;;20.70;99.90;;;;;;5009755;28;20030;-80
2022/08/26 03:41:45;;;;;;;2.08;1.40;;;20.60;99.90;;;;;;4977927;28;20042;-80
2022/08/26 03:44:12;;;;;;;2.03;1.63;;;20.70;99.90;;;;;;5010244;28;20047;-80
2022/08/26 03:46:39;;;;;;;1.83;1.15;;;20.70;99.90;;;;;;4995553;28;20049;-84
2022/08/26 03:49:06;;;;;;;2.38;1.48;;;20.70;99.90;;;;;;5014004;28;20042;-84
2022/08/26 03:51:35;;;;;;;2.20;1.45;;;20.70;99.90;;;;;;4993423;28;20052;-80
2022/08/26 03:54:02;;;;;;;1.58;1.08;;;20.70;99.90;;;;;;5033696;28;20042;-80
2022/08/26 03:56:32;;;;;;;1.83;1.20;;;20.70;99.90;;;;;;5032980;28;20454;-85
2022/08/26 03:58:59;;;;;;;1.80;1.10;;;20.70;99.90;;;;;;5017696;28;20124;-85
2022/08/26 04:01:27;;;;;;;1.85;1.20;;;20.70;99.90;;;;;;5016769;28;20042;-80
2022/08/26 04:03:57;;;;;;;1.58;1.15;;;20.60;99.90;;;;;;5017560;28;20054;-84
2022/08/26 04:06:26;;;;;;;1.48;1.08;;;20.70;99.90;;;;;;5017076;28;20064;-80
2022/08/26 04:08:55;;;;;;;1.85;1.23;;;20.70;99.90;;;;;;5049156;28;20042;-80
2022/08/26 04:11:27;;;;;;;3.15;1.88;;;20.70;99.90;;;;;;5032965;28;20045;-80
2022/08/26 04:13:53;;;;;;;2.58;1.63;;;20.70;99.90;;;;;;5032999;28;20072;-80
2022/08/26 04:16:20;;;;;;;2.13;1.55;;;20.70;99.90;;;;;;5000762;28;20045;-84
2022/08/26 04:18:47;;;;;;;2.58;1.70;;;20.70;99.90;;;;;;5000366;28;20045;-85
2022/08/26 04:21:14;;;;;;;2.60;1.40;;;20.80;99.90;;;;;;5017043;28;20042;-85
2022/08/26 04:23:40;;;;;;;2.90;1.63;;;20.70;99.90;;;;;;5032247;28;20053;-80
2022/08/26 04:26:07;;;;;;;3.42;1.80;;;20.70;99.90;;;;;;4996897;28;20046;-80
2022/08/26 04:28:34;;;;;;;3.22;1.60;;;20.80;99.90;;;;;;5029132;28;20572;-81
2022/08/26 04:31:01;;;;;;;2.42;1.40;;;20.70;99.90;;;;;;5012543;28;20795;-85
2022/08/26 04:33:28;;;;;;;2.15;1.35;;;20.80;99.90;;;;;;5012017;28;20049;-81
2022/08/26 04:36:00;;;;;;;3.65;1.60;;;20.70;99.90;;;;;;5012877;28;20034;-80
2022/08/26 04:38:26;;;;;;;2.00;1.23;;;20.80;99.90;;;;;;4980648;28;20085;-84
2022/08/26 04:40:53;;;;;;;2.13;1.30;;;20.80;99.90;;;;;;5029443;28;20046;-84
2022/08/26 04:43:20;;;;;;;1.92;1.23;;;20.80;99.90;;;;;;5032135;28;20034;-84
2022/08/26 04:45:47;;;;;;;1.63;1.25;;;20.70;99.90;;;;;;5029090;28;20488;-80
2022/08/26 04:48:14;;;;;;;1.88;1.17;;;20.70;99.90;;;;;;4996916;28;20054;-84
2022/08/26 04:50:41;;;;;;;1.55;1.05;;;20.80;99.90;;;;;;5029212;28;20075;-80
2022/08/26 04:53:07;;;;;;;1.40;1.00;;;20.80;99.90;;;;;;4989325;28;20046;-80
2022/08/26 04:55:34;;;;;;;2.35;1.05;;;20.80;99.90;;;;;;5022345;28;20030;-84
2022/08/26 04:58:01;;;;;;;1.95;1.33;;;20.80;99.90;;;;;;5015591;28;20563;-85
2022/08/26 05:00:27;;;;;;;2.20;1.30;;;20.80;99.90;;;;;;5032324;28;20052;-81
2022/08/26 05:02:54;;;;;;;4.15;1.52;;;20.80;99.90;;;;;;4996016;28;20062;-80
2022/08/26 05:05:20;;;;;;;2.97;1.73;;;20.80;99.90;;;;;;5012562;28;20049;-80
2022/08/26 05:07:47;;;;;;;1.67;1.17;;;20.90;99.90;;;;;;5012268;28;20590;-84
2022/08/26 05:10:14;;;;;;;2.97;1.75;;;20.90;99.90;;;;;;5012519;28;20038;-80
2022/08/26 05:12:40;;;;;;;2.70;1.17;;;20.90;99.90;;;;;;5011911;28;20411;-84
2022/08/26 05:15:09;;;;;;;1.30;0.80;;;20.90;99.90;;;;;;4996221;28;20106;-84
2022/08/26 05:17:36;;;;;;;2.35;1.45;;;20.90;99.90;;;;;;5028319;28;20121;-80
2022/08/26 05:20:03;;;;;;;1.90;1.13;;;20.90;99.90;;;;;;4988313;28;20039;-85
2022/08/26 05:22:30;;;;;;;2.08;1.27;;;20.90;99.90;;;;;;5012497;28;20057;-80
2022/08/26 05:24:56;;;;;;;1.95;1.30;;;21.00;99.90;;;;;;4995964;28;20438;-84
2022/08/26 05:27:23;;;;;;;2.83;1.42;;;20.90;99.90;;;;;;4980083;28;20069;-84
2022/08/26 05:29:50;;;;;;;1.98;1.45;;;20.90;99.90;;;;;;5002683;28;20038;-80
2022/08/26 05:32:16;;;;;;;1.58;1.20;;;20.90;99.90;;;;;;5031623;28;20042;-80
2022/08/26 05:34:43;;;;;;;1.55;1.08;;;20.90;99.90;;;;;;5015057;28;20684;-84
2022/08/26 05:37:10;;;;;;;1.63;1.10;;;20.90;99.90;;;;;;5015350;28;20111;-84
2022/08/26 05:39:37;;;;;;;2.75;1.08;;;21.00;99.90;;;;;;5035822;28;20037;-80
2022/08/26 05:42:04;;;;;;;1.80;1.15;;;20.90;99.90;;;;;;5044259;28;20101;-80
2022/08/26 05:44:31;;;;;;;1.70;1.13;;;20.90;99.90;;;;;;5028543;28;20054;-80
2022/08/26 05:46:57;;;;;;;2.05;1.40;;;21.00;99.90;;;;;;4979529;28;20922;-85
2022/08/26 05:49:24;;;;;;;2.42;1.33;;;21.00;99.90;;;;;;4979965;28;20442;-85
2022/08/26 05:51:51;;;;;;;4.00;1.10;;;21.00;99.90;;;;;;4994138;28;20499;-80
2022/08/26 05:54:17;;;;;;;1.80;1.17;;;21.00;99.90;;;;;;5031117;28;20618;-83
2022/08/26 05:56:44;;;;;;;5.03;1.70;;;21.10;99.90;;;;;;5014835;28;20126;-85
2022/08/26 05:59:13;;;;;;;2.03;1.20;;;21.10;99.90;;;;;;5031415;28;20095;-80
2022/08/26 06:01:41;;;;;;;2.28;1.67;;;21.10;99.90;;;;;;5029811;28;20411;-81
2022/08/26 06:04:08;;;;;;;1.48;1.00;;;21.10;99.90;;;;;;5014793;28;20044;-84
2022/08/26 06:06:40;;;;;;;1.65;1.10;;;21.10;99.90;;;;;;5047072;28;20030;-84
2022/08/26 06:09:07;;;;;;;1.90;1.15;;;21.10;99.90;;;;;;5026476;28;20388;-80
2022/08/26 06:11:34;;;;;;;2.63;1.58;;;21.20;99.90;;;;;;5040314;28;20061;-84
2022/08/26 06:14:03;;;;;;;1.60;1.00;;;21.20;99.90;;;;;;4994815;28;20127;-85
2022/08/26 06:16:33;;;;;;;2.00;1.30;;;21.20;99.90;;;;;;5027551;28;20037;-86
2022/08/26 06:19:02;;;;;;;2.08;0.90;;;21.20;99.90;;;;;;5010889;28;20064;-86
2022/08/26 06:21:32;;;;;;;1.60;1.10;;;21.20;99.90;;;;;;5027622;28;20507;-85
2022/08/26 06:26:55;;;;;;;2.17;1.48;;;21.20;99.90;;;;;;5026933;28;20042;-80
2022/08/26 06:29:24;;;;;;;1.92;1.27;;;21.20;99.90;;;;;;5027066;28;20045;-85
2022/08/26 06:31:55;;;;;;;2.65;1.20;;;21.20;99.90;;;;;;5010542;28;20181;-80
2022/08/26 06:34:23;;;;;;;3.25;1.30;;;21.20;99.90;;;;;;5044277;28;20052;-80
2022/08/26 06:36:50;;;;;;;2.70;1.67;;;21.20;99.90;;;;;;5030329;28;20037;-84
2022/08/26 06:39:17;;;;;;;2.35;1.30;;;21.30;99.90;;;;;;5014220;28;20034;-84
2022/08/26 06:41:44;;;;;;;1.92;1.10;;;21.30;99.90;;;;;;5013933;28;20474;-85
2022/08/26 06:44:12;;;;;;;1.88;1.10;;;21.30;99.90;;;;;;5035344;28;20031;-81
2022/08/26 06:46:40;;;;;;;2.75;1.45;;;21.30;99.90;;;;;;5011012;28;20037;-80
2022/08/26 06:49:07;;;;;;;2.22;1.50;;;21.30;99.90;;;;;;4994504;28;20620;-85
2022/08/26 06:51:36;;;;;;;2.20;1.52;;;21.40;99.90;;;;;;4994627;28;20133;-82
2022/08/26 06:54:05;;;;;;;2.15;1.30;;;21.50;99.90;;;;;;5026399;28;20045;-80
2022/08/26 06:56:34;;;;;;;1.75;1.15;;;21.50;99.90;;;;;;4994810;28;20046;-84
2022/08/26 06:59:02;;;;;;;2.15;1.27;;;21.50;99.90;;;;;;5010201;28;20038;-85
2022/08/26 07:01:32;;;;;;;1.90;1.30;;;21.50;99.90;;;;;;5010338;28;20108;-85
2022/08/26 07:04:02;;;;;;;2.35;1.48;;;21.60;99.90;;;;;;4993890;28;20042;-85
2022/08/26 07:06:29;;;;;;;2.67;1.85;;;21.60;99.90;;;;;;5005881;28;20035;-81
2022/08/26 07:09:03;;;;;;;1.75;1.20;;;21.70;99.90;;;;;;5013315;28;20491;-80
2022/08/26 07:11:31;;;;;;;1.65;1.10;;;21.80;99.90;;;;;;5013321;28;20107;-81
2022/08/26 07:13:58;;;;;;;4.85;1.58;;;21.80;99.90;;;;;;5013392;28;20738;-81
2022/08/26 07:16:26;;;;;;;2.53;1.52;;;21.80;99.90;;;;;;5029616;28;20042;-85
2022/08/26 07:18:53;;;;;;;1.70;1.05;;;21.90;99.90;;;;;;5009798;28;20030;-85
2022/08/26 07:21:21;;;;;;;1.75;1.10;;;22.00;99.90;;;;;;4986639;28;20042;-85
2022/08/26 07:23:48;;;;;;;3.22;1.35;;;22.20;99.90;;;;;;5009807;28;20515;-84
2022/08/26 07:26:18;;;;;;;1.98;1.10;;;22.20;99.90;;;;;;4994620;28;20533;-81
2022/08/26 07:28:47;;;;;;;2.28;1.40;;;22.40;99.90;;;;;;5029441;28;20044;-80
2022/08/26 07:31:15;;;;;;;1.73;1.17;;;22.50;99.90;;;;;;5003514;28;20125;-80
2022/08/26 07:33:42;;;;;;;1.55;1.00;;;22.60;99.90;;;;;;5009800;28;20388;-80
2022/08/26 07:36:11;;;;;;;2.97;1.85;;;22.60;99.90;;;;;;4991908;28;20533;-80
2022/08/26 07:38:39;;;;;;;2.15;1.30;;;22.50;99.90;;;;;;4997280;28;20042;-81
2022/08/26 07:41:07;;;;;;;1.85;1.30;;;22.40;99.90;;;;;;5009680;28;20038;-84
2022/08/26 07:43:35;;;;;;;1.17;0.90;;;22.30;99.90;;;;;;5009683;28;20050;-81
2022/08/26 07:46:03;;;;;;;3.55;1.23;;;22.20;99.90;;;;;;4996728;28;20675;-82
2022/08/26 07:48:30;;;;;;;1.77;1.08;;;22.20;99.90;;;;;;5009864;28;20043;-83
2022/08/26 07:50:57;;;;;;;2.20;1.30;;;22.10;99.90;;;;;;4977713;28;20046;-82
2022/08/26 07:53:24;;;;;;;2.15;1.27;;;22.10;99.90;;;;;;4998402;28;20038;-81
2022/08/26 07:55:51;;;;;;;1.92;1.08;;;22.10;99.90;;;;;;4996811;28;20395;-82
2022/08/26 07:58:18;;;;;;;1.88;1.20;;;22.10;99.90;;;;;;4997108;28;20483;-84
2022/08/26 08:00:46;;;;;;;1.45;1.00;;;22.10;99.90;;;;;;5011268;28;20100;-81
2022/08/26 08:03:13;;;;;;;2.08;1.27;;;22.10;99.90;;;;;;5003418;28;20054;-82
2022/08/26 08:05:40;;;;;;;1.83;0.98;;;22.20;99.90;;;;;;5023334;28;20652;-82
2022/08/26 08:08:08;;;;;;;1.33;0.88;;;22.30;99.90;;;;;;5044596;28;20052;-81
2022/08/26 08:10:36;;;;;;;1.50;0.90;;;22.40;99.90;;;;;;5012586;28;20100;-81
2022/08/26 08:13:05;;;;;;;2.05;1.20;;;22.40;99.90;;;;;;5040257;28;20053;-80
2022/08/26 08:15:33;;;;;;;1.52;0.98;;;22.50;99.90;;;;;;5022631;28;20130;-86
2022/08/26 08:18:00;;;;;;;1.95;1.30;;;22.50;99.90;;;;;;5035683;28;20042;-86
2022/08/26 08:20:28;;;;;;;1.52;0.93;;;22.50;99.90;;;;;;5009504;28;20755;-86
2022/08/26 08:22:55;;;;;;;1.83;1.08;;;22.50;99.90;;;;;;5032605;28;20081;-87
2022/08/26 08:25:22;;;;;;;1.98;1.27;;;22.50;99.90;;;;;;5045892;28;20076;-86
2022/08/26 08:27:49;;;;;;;2.80;1.30;;;22.40;99.90;;;;;;5045007;28;20499;-84
2022/08/26 08:30:20;;;;;;;2.03;1.10;;;22.40;99.90;;;;;;5028106;28;20096;-85
2022/08/26 08:32:47;;;;;;;1.92;1.20;;;22.30;99.90;;;;;;5030467;28;20541;-80
2022/08/26 08:35:16;;;;;;;2.35;1.25;;;22.20;99.90;;;;;;5014350;28;20038;-81
2022/08/26 08:37:43;;;;;;;2.05;1.10;;;22.20;99.90;;;;;;5014364;28;20039;-84
2022/08/26 08:40:14;;;;;;;1.95;1.15;;;22.20;99.90;;;;;;5032002;28;20042;-81
2022/08/26 08:42:57;;;;;;;2.42;0.90;;;22.20;99.90;;;;;;5032057;28;20034;-81
2022/08/26 08:45:35;;;;;;;1.48;1.00;;;22.20;99.90;;;;;;5032984;28;20038;-85
2022/08/26 08:48:26;;;;;;;1.63;1.08;;;22.20;99.90;;;;;;5031989;28;20041;-85
2022/08/26 08:51:02;;;;;;;2.13;0.98;;;22.20;99.90;;;;;;5010966;28;20081;-81
2022/08/26 08:53:38;;;;;;;2.67;1.00;;;22.20;99.90;;;;;;5029146;28;20046;-81
2022/08/26 08:56:22;;;;;;;1.80;0.93;;;22.20;99.90;;;;;;5048048;28;20498;-81
2022/08/26 08:58:56;;;;;;;1.55;1.00;;;22.30;99.90;;;;;;5031705;28;20034;-86
2022/08/26 09:01:47;;;;;;;1.88;1.05;;;22.30;99.90;;;;;;5047524;28;20041;-85
2022/08/26 09:04:32;;;;;;;2.80;1.38;;;22.40;99.90;;;;;;5007210;28;20049;-85
2022/08/26 09:07:01;;;;;;;2.08;1.13;;;22.40;99.90;;;;;;5013364;28;20055;-85
2022/08/26 09:10:16;;;;;;;2.10;1.13;;;22.40;99.90;;;;;;5031577;28;20594;-86
2022/08/26 09:12:44;;;;;;;2.60;1.08;;;22.30;99.90;;;;;;4918302;29;20578;-81
2022/08/26 09:15:45;;;;;;;1.33;0.70;;;22.30;99.90;;;;;;4997730;28;20046;-80
2022/08/26 09:18:49;;;;;;;1.52;1.00;;;22.20;99.90;;;;;;5021158;28;20041;-85
2022/08/26 09:21:18;;;;;;;1.77;1.27;;;22.20;99.90;;;;;;5008499;28;20515;-86
2022/08/26 09:23:46;;;;;;;2.05;1.17;;;22.10;99.90;;;;;;5011560;28;20872;-86
2022/08/26 09:26:21;;;;;;;2.47;1.35;;;22.10;99.90;;;;;;4979694;28;20133;-85
2022/08/26 09:28:54;;;;;;;3.78;1.38;;;22.20;99.90;;;;;;5019913;28;20046;-80
2022/08/26 09:31:26;;;;;;;1.90;1.08;;;22.30;99.90;;;;;;5013170;28;20124;-80
2022/08/26 09:34:17;;;;;;;3.60;1.42;;;22.30;99.90;;;;;;5015064;28;20042;-81
2022/08/26 09:36:47;;;;;;;2.67;1.08;;;22.30;99.90;;;;;;5031390;28;20092;-80
2022/08/26 09:39:24;;;;;;;1.55;1.00;;;22.30;99.90;;;;;;4999228;28;20056;-80
2022/08/26 09:42:06;;;;;;;1.75;0.95;;;22.40;99.90;;;;;;5014969;28;20096;-80
2022/08/26 09:44:34;;;;;;;1.15;0.70;;;22.30;99.90;;;;;;5017191;28;20054;-81
2022/08/26 09:47:04;;;;;;;1.17;0.70;;;22.30;99.90;;;;;;5014758;28;20042;-84
2022/08/26 09:49:35;;;;;;;0.88;0.55;;;22.40;99.90;;;;;;5014905;28;20048;-81
2022/08/26 09:52:07;;;;;;;0.88;0.60;;;22.30;99.90;;;;;;5031182;28;20050;-82
2022/08/26 09:54:35;;;;;;;1.30;0.80;;;22.30;99.90;;;;;;5014224;28;20128;-81
2022/08/26 09:57:23;;;;;;;0.63;0.45;;;22.30;99.90;;;;;;5030633;28;20038;-86
2022/08/26 09:59:50;;;;;;;0.68;0.50;;;22.40;99.90;;;;;;5015174;28;20108;-80
2022/08/26 10:02:28;;;;;;;0.63;0.50;;;22.40;99.90;;;;;;5001847;28;20089;-85
2022/08/26 10:04:57;;;;;;;2.05;0.65;;;22.50;99.90;;;;;;5030773;28;20056;-81
2022/08/26 10:07:51;;;;;;;0.65;0.55;;;22.60;99.90;;;;;;5030676;28;20166;-85
2022/08/26 10:10:25;;;;;;;0.73;0.50;;;22.80;99.90;;;;;;5028144;28;20050;-85
2022/08/26 10:13:06;;;;;;;0.85;0.60;;;22.90;99.90;;;;;;5030528;28;20138;-83
2022/08/26 10:15:58;;;;;;;0.60;0.40;;;23.10;99.90;;;;;;5030556;28;20115;-81
2022/08/26 10:18:29;;;;;;;1.42;0.60;;;23.30;99.90;;;;;;5029858;28;20077;-81
2022/08/26 10:21:08;;;;;;;1.17;0.50;;;23.30;99.90;;;;;;5046372;28;20034;-80
2022/08/26 10:23:41;;;;;;;0.60;0.50;;;23.30;99.90;;;;;;5046511;28;20400;-82
2022/08/26 10:26:37;;;;;;;0.43;0.30;;;23.30;99.90;;;;;;5029623;28;20064;-80
2022/08/26 10:29:20;;;;;;;;;;;23.20;99.90;;;;;;5030621;28;20049;-81
2022/08/26 10:32:00;;;;;;;0.52;0.40;;;23.10;99.90;;;;;;5046485;28;20382;-80
2022/08/26 10:34:26;;;;;;;0.75;0.50;;;22.90;99.90;;;;;;5027502;28;20152;-82
2022/08/26 10:37:07;;;;;;;1.00;0.60;;;22.80;99.90;;;;;;5014217;28;20077;-83
2022/08/26 10:40:13;;;;;;;0.30;0.30;;;22.50;99.90;;;;;;5046261;28;20049;-84
2022/08/26 10:42:55;;;;;;;1.25;0.52;;;22.40;99.90;;;;;;5029475;28;20037;-80
2022/08/26 10:45:26;;;;;;;0.40;0.30;;;22.30;99.90;;;;;;5029193;28;20044;-84
2022/08/26 10:48:00;;;;;;;0.35;0.25;;;22.30;99.90;;;;;;5043668;28;20045;-84
2022/08/26 10:50:33;;;;;;;0.43;0.25;;;22.30;99.90;;;;;;5027412;28;20045;-80
2022/08/26 10:53:12;;;;;;;0.28;0.28;;;22.30;99.90;;;;;;5046053;28;20128;-84
2022/08/26 10:56:05;;;;;;;0.20;0.20;;;22.30;99.90;;;;;;5045055;28;20132;-81
2022/08/26 10:59:18;;;;;;;0.65;0.50;;;22.30;99.90;;;;;;5029866;28;20096;-80
2022/08/26 11:02:14;;;;;;;0.52;0.30;;;22.20;99.90;;;;;;5029558;28;20050;-81
2022/08/26 11:04:55;;;;;;;0.57;0.30;;;22.20;99.90;;;;;;5010449;28;20043;-80
2022/08/26 11:07:57;;;;;;;0.63;0.43;;;22.20;99.90;;;;;;5009971;28;20061;-80
2022/08/26 11:10:23;;;;;;;0.50;0.40;;;22.20;99.90;;;;;;4984004;28;20049;-85
2022/08/26 11:12:52;;;;;;;1.65;0.60;;;22.30;99.90;;;;;;5013361;28;20042;-85
2022/08/26 11:15:18;;;;;;;0.25;0.22;;;22.30;99.90;;;;;;5008923;28;20038;-84
2022/08/26 11:17:45;;;;;;;0.95;0.38;;;22.20;99.90;;;;;;5002717;28;20049;-79
2022/08/26 11:20:21;;;;;;;0.28;0.20;;;22.10;99.90;;;;;;5018294;28;20042;-80
2022/08/26 11:22:53;;;;;;;0.38;0.38;;;22.10;99.90;;;;;;5029372;28;20033;-80
2022/08/26 11:25:22;;;;;;;0.32;0.30;;;22.00;99.90;;;;;;5009608;28;20524;-85
2022/08/26 11:27:51;;;;;;;0.32;0.22;;;21.90;99.90;;;;;;5000559;28;20035;-88
2022/08/26 11:30:21;;;;;;;1.38;0.30;;;21.90;99.90;;;;;;5010119;28;20050;-80
2022/08/26 11:32:49;;;;;;;1.42;0.40;;;21.80;99.90;;;;;;5010050;28;20459;-81
2022/08/26 11:35:16;;;;;;;0.20;0.20;;;21.90;99.90;;;;;;4993898;28;20403;-80
2022/08/26 11:38:14;;;;;;;0.45;0.32;;;21.90;99.90;;;;;;4996965;28;20038;-81
2022/08/26 11:40:41;;;;;;;0.30;0.30;;;22.00;99.90;;;;;;5012908;28;20504;-80
2022/08/26 11:43:19;;;;;;;0.55;0.40;;;22.00;99.90;;;;;;5013373;28;20470;-85
2022/08/26 11:46:10;;;;;;;0.55;0.38;;;22.00;99.90;;;;;;5012952;28;20034;-84
2022/08/26 11:48:39;;;;;;;1.20;0.52;;;22.10;99.90;;;;;;4997000;28;20140;-80
2022/08/26 11:51:23;;;;;;;0.55;0.40;;;22.10;99.90;;;;;;5009301;28;20069;-85
2022/08/26 11:53:50;;;;;;;0.43;0.38;;;22.10;99.90;;;;;;5002837;28;20077;-85
2022/08/26 11:56:27;;;;;;;1.05;0.60;;;22.10;99.90;;;;;;5009865;28;20092;-81
2022/08/26 11:58:57;;;;;;;1.17;0.60;;;22.00;99.90;;;;;;5011008;28;20519;-84
2022/08/26 12:01:30;;;;;;;2.17;0.52;;;22.00;99.90;;;;;;5012298;28;20113;-84
2022/08/26 12:03:58;;;;;;;1.33;0.70;;;22.00;99.90;;;;;;5022768;28;20128;-80
2022/08/26 12:06:47;;;;;;;1.10;0.57;;;22.10;99.90;;;;;;5012759;28;20042;-83
2022/08/26 12:09:31;;;;;;;0.88;0.50;;;22.10;99.90;;;;;;5007527;28;20112;-80
2022/08/26 12:12:14;;;;;;;0.63;0.43;;;22.20;99.90;;;;;;5012948;28;20038;-85
2022/08/26 12:14:41;;;;;;;0.70;0.57;;;22.20;99.90;;;;;;5028025;28;20077;-86
2022/08/26 12:17:16;;;;;;;0.40;0.40;;;22.30;99.90;;;;;;5012576;28;20113;-81
2022/08/26 12:19:43;;;;;;;;;;;22.30;99.90;;;;;;5031476;28;20671;-81
2022/08/26 12:22:19;;;;;;;0.28;0.28;;;22.30;99.90;;;;;;5016429;28;19927;-85
2022/08/26 12:24:55;;;;;;;0.75;0.50;;;22.30;99.90;;;;;;5032740;28;20087;-85
2022/08/26 12:27:24;;;;;;;2.25;0.77;;;22.20;99.90;;;;;;5012290;28;20772;-80
2022/08/26 12:30:01;;;;;;;0.50;0.40;;;22.10;99.90;;;;;;4996741;28;20050;-82
2022/08/26 12:32:30;;;;;;;0.30;0.30;;;22.00;99.90;;;;;;5005332;28;20157;-85
2022/08/26 12:34:57;;;;;;;2.00;0.50;;;21.90;99.90;;;;;;5015087;28;20076;-84
2022/08/26 12:37:26;;;;;;;4.38;0.50;;;21.90;99.90;;;;;;5015630;28;20034;-81
2022/08/26 12:39:53;;;;;;;0.43;0.30;;;21.90;99.90;;;;;;5015822;28;20770;-85
2022/08/26 12:42:22;;;;;;;0.30;0.30;;;21.80;99.90;;;;;;5015717;28;20072;-84
2022/08/26 12:44:59;;;;;;;0.43;0.32;;;21.80;99.90;;;;;;5012210;28;20045;-85
2022/08/26 12:47:30;;;;;;;0.45;0.30;;;21.70;99.90;;;;;;5020815;28;20038;-81
2022/08/26 12:50:06;;;;;;;0.73;0.52;;;21.80;99.90;;;;;;5016376;28;20049;-87
2022/08/26 12:52:42;;;;;;;0.40;0.30;;;21.80;99.90;;;;;;5015898;28;20042;-80
2022/08/26 12:55:24;;;;;;;0.30;0.30;;;22.00;99.90;;;;;;5015769;28;20041;-81
2022/08/26 12:58:14;;;;;;;0.40;0.40;;;22.00;99.90;;;;;;5009531;28;20125;-87
2022/08/26 13:00:46;;;;;;;0.75;0.40;;;22.00;99.90;;;;;;5029006;28;20042;-81
2022/08/26 13:03:39;;;;;;;2.17;0.68;;;22.10;99.90;;;;;;4987965;28;20058;-86
2022/08/26 13:06:28;;;;;;;0.52;0.40;;;22.10;99.90;;;;;;5029061;28;20046;-87
2022/08/26 13:08:56;;;;;;;0.50;0.30;;;22.00;99.90;;;;;;5028230;28;20128;-81
2022/08/26 13:11:30;;;;;;;1.02;0.40;;;22.10;99.90;;;;;;5028626;28;20046;-81
2022/08/26 13:14:12;;;;;;;5.28;0.75;;;22.10;99.90;;;;;;5012391;28;20047;-81
2022/08/26 13:16:42;;;;;;;0.32;0.20;;;22.10;99.90;;;;;;5042207;28;20038;-81